createdAt,value
2019-03-17T00:02:18.955Z,11.80
2019-03-17T00:04:47.570Z,11.90
2019-03-17T00:07:16.126Z,11.80
2019-03-17T00:09:44.686Z,11.90
2019-03-17T00:12:13.239Z,11.90
2019-03-17T00:14:41.846Z,11.80
2019-03-17T00:17:10.465Z,11.90
2019-03-17T00:19:39.063Z,11.90
2019-03-17T00:22:07.774Z,11.90
2019-03-17T00:24:36.323Z,11.80
2019-03-17T00:27:05.018Z,11.80
2019-03-17T00:29:33.550Z,11.80
2019-03-17T00:32:02.185Z,11.80
2019-03-17T00:34:43.277Z,11.90
2019-03-17T00:37:01.064Z,11.90
2019-03-17T00:39:29.659Z,11.80
2019-03-17T00:41:58.293Z,11.80
2019-03-17T00:44:26.758Z,11.70
2019-03-17T00:46:55.350Z,11.60
2019-03-17T00:49:23.898Z,11.50
2019-03-17T00:51:52.526Z,11.50
2019-03-17T00:54:21.199Z,11.40
2019-03-17T00:56:49.874Z,11.40
2019-03-17T00:59:18.482Z,11.40
2019-03-17T01:01:46.951Z,11.40
2019-03-17T01:04:15.600Z,11.30
2019-03-17T01:06:44.203Z,11.30
2019-03-17T01:09:12.768Z,11.30
2019-03-17T01:11:41.374Z,11.20
2019-03-17T01:14:09.961Z,11.20
2019-03-17T01:16:38.642Z,11.20
2019-03-17T01:19:07.382Z,11.30
2019-03-17T01:21:35.985Z,11.30
2019-03-17T01:24:04.603Z,11.30
2019-03-17T01:26:33.145Z,11.30
2019-03-17T01:29:01.726Z,11.10
2019-03-17T01:31:30.428Z,11.10
2019-03-17T01:33:58.977Z,11.00
2019-03-17T01:36:27.622Z,11.00
2019-03-17T01:38:56.102Z,10.90
2019-03-17T01:41:24.685Z,10.90
2019-03-17T01:43:53.176Z,10.90
2019-03-17T01:46:21.746Z,10.90
2019-03-17T01:48:50.513Z,10.80
2019-03-17T01:51:19.091Z,10.60
2019-03-17T01:53:47.634Z,10.30
2019-03-17T01:56:16.346Z,10.10
2019-03-17T01:58:44.957Z,9.80
2019-03-17T02:01:13.678Z,9.60
2019-03-17T02:03:42.344Z,9.50
2019-03-17T02:06:10.958Z,9.40
2019-03-17T02:08:39.566Z,9.30
2019-03-17T02:11:08.102Z,9.20
2019-03-17T02:13:36.729Z,9.20
2019-03-17T02:16:05.329Z,9.10
2019-03-17T02:18:33.809Z,9.10
2019-03-17T02:21:02.289Z,9.00
2019-03-17T02:23:30.842Z,9.00
2019-03-17T02:25:59.378Z,8.90
2019-03-17T02:28:27.858Z,8.90
2019-03-17T02:30:56.390Z,8.80
2019-03-17T02:33:25.010Z,8.80
2019-03-17T02:35:53.610Z,8.80
2019-03-17T02:38:22.206Z,8.80
2019-03-17T02:40:50.784Z,8.80
2019-03-17T02:43:19.410Z,8.70
2019-03-17T02:45:47.981Z,8.70
2019-03-17T02:48:16.585Z,8.70
2019-03-17T02:50:45.209Z,8.70
2019-03-17T02:53:13.901Z,8.70
2019-03-17T02:55:42.472Z,8.70
2019-03-17T02:58:11.011Z,8.70
2019-03-17T03:00:39.660Z,8.70
2019-03-17T03:03:08.171Z,8.70
2019-03-17T03:05:36.778Z,8.70
2019-03-17T03:08:08.269Z,8.80
2019-03-17T03:10:36.911Z,8.80
2019-03-17T03:13:05.584Z,8.80
2019-03-17T03:15:34.214Z,8.80
2019-03-17T03:18:02.845Z,8.90
2019-03-17T03:20:31.392Z,8.80
2019-03-17T03:22:59.934Z,8.80
2019-03-17T03:25:28.478Z,8.80
2019-03-17T03:27:57.098Z,8.70
2019-03-17T03:30:25.799Z,8.60
2019-03-17T03:32:54.351Z,8.50
2019-03-17T03:35:23.041Z,8.50
2019-03-17T03:37:51.685Z,8.40
2019-03-17T03:40:20.353Z,8.30
2019-03-17T03:42:48.920Z,8.20
2019-03-17T03:45:17.518Z,8.30
2019-03-17T03:47:46.268Z,8.20
2019-03-17T03:50:14.971Z,8.10
2019-03-17T03:52:43.617Z,8.10
2019-03-17T03:55:12.270Z,8.00
2019-03-17T03:57:40.887Z,7.90
2019-03-17T04:00:15.107Z,7.90
2019-03-17T04:02:43.807Z,7.80
2019-03-17T04:05:12.491Z,7.80
2019-03-17T04:07:41.030Z,7.80
2019-03-17T04:10:10.533Z,7.80
2019-03-17T04:12:39.133Z,7.70
2019-03-17T04:15:09.826Z,7.70
2019-03-17T04:17:42.404Z,7.70
2019-03-17T04:20:12.305Z,7.70
2019-03-17T04:22:40.886Z,7.60
2019-03-17T04:25:09.589Z,7.70
2019-03-17T04:27:38.122Z,7.70
2019-03-17T04:30:09.470Z,7.70
2019-03-17T04:32:38.068Z,7.70
2019-03-17T04:35:07.572Z,7.70
2019-03-17T04:37:55.461Z,7.60
2019-03-17T04:40:24.029Z,7.60
2019-03-17T04:42:52.561Z,7.70
2019-03-17T04:45:21.197Z,7.60
2019-03-17T04:47:49.817Z,7.60
2019-03-17T04:50:18.459Z,7.60
2019-03-17T04:52:47.154Z,7.70
2019-03-17T04:55:15.801Z,7.80
2019-03-17T04:57:44.362Z,7.90
2019-03-17T05:00:13.841Z,7.80
2019-03-17T05:02:42.414Z,7.80
2019-03-17T05:05:10.938Z,7.80
2019-03-17T05:07:39.567Z,7.80
2019-03-17T05:10:09.997Z,7.80
2019-03-17T05:12:38.492Z,7.90
2019-03-17T05:15:09.571Z,7.80
2019-03-17T05:17:38.143Z,7.80
2019-03-17T05:20:09.250Z,7.80
2019-03-17T05:22:37.806Z,7.90
2019-03-17T05:25:07.476Z,7.80
2019-03-17T05:27:36.099Z,7.90
2019-03-17T05:30:07.539Z,7.90
2019-03-17T05:32:36.088Z,7.80
2019-03-17T05:35:06.336Z,7.80
2019-03-17T05:37:34.875Z,7.80
2019-03-17T05:40:04.670Z,7.90
2019-03-17T05:42:33.210Z,7.90
2019-03-17T05:45:03.235Z,8.00
2019-03-17T05:47:31.837Z,8.10
2019-03-17T05:50:00.459Z,8.10
2019-03-17T05:52:29.129Z,8.30
2019-03-17T05:54:57.736Z,8.40
2019-03-17T05:57:26.337Z,8.50
2019-03-17T06:00:15.646Z,8.60
2019-03-17T06:02:44.248Z,8.70
2019-03-17T06:05:12.789Z,8.90
2019-03-17T06:07:41.337Z,9.00
2019-03-17T06:10:10.035Z,9.20
2019-03-17T06:12:38.577Z,9.40
2019-03-17T06:15:10.222Z,9.50
2019-03-17T06:17:38.915Z,9.60
2019-03-17T06:20:12.399Z,9.90
2019-03-17T06:22:41.011Z,9.90
2019-03-17T06:25:09.800Z,10.10
2019-03-17T06:27:38.429Z,10.10
2019-03-17T06:30:10.031Z,10.30
2019-03-17T06:32:38.691Z,10.40
2019-03-17T06:35:07.592Z,10.40
2019-03-17T06:37:36.291Z,10.50
2019-03-17T06:40:10.427Z,10.70
2019-03-17T06:42:45.128Z,10.80
2019-03-17T06:45:13.806Z,11.10
2019-03-17T06:47:42.525Z,11.10
2019-03-17T06:50:13.213Z,11.30
2019-03-17T06:52:41.989Z,11.40
2019-03-17T06:55:12.356Z,11.40
2019-03-17T06:57:40.919Z,11.40
2019-03-17T07:00:13.337Z,11.50
2019-03-17T07:02:42.040Z,11.60
2019-03-17T07:05:11.101Z,11.60
2019-03-17T07:07:44.527Z,11.70
2019-03-17T07:10:10.769Z,11.80
2019-03-17T07:12:39.379Z,11.90
2019-03-17T07:15:10.298Z,12.00
2019-03-17T07:17:38.898Z,12.10
2019-03-17T07:20:10.318Z,12.10
2019-03-17T07:22:38.873Z,12.20
2019-03-17T07:25:08.881Z,12.40
2019-03-17T07:27:40.091Z,12.50
2019-03-17T07:30:12.082Z,12.70
2019-03-17T07:32:40.598Z,12.60
2019-03-17T07:35:09.383Z,12.80
2019-03-17T07:37:37.997Z,12.70
2019-03-17T07:40:13.121Z,12.90
2019-03-17T07:42:42.082Z,12.90
2019-03-17T07:45:14.206Z,13.00
2019-03-17T07:47:42.740Z,13.40
2019-03-17T07:50:15.275Z,13.50
2019-03-17T07:52:43.872Z,13.60
2019-03-17T07:55:12.506Z,13.70
2019-03-17T07:57:41.119Z,14.00
2019-03-17T08:00:13.274Z,14.10
2019-03-17T08:02:41.975Z,14.20
2019-03-17T08:05:10.857Z,14.60
2019-03-17T08:07:39.929Z,14.80
2019-03-17T08:10:11.413Z,14.80
2019-03-17T08:12:40.043Z,15.00
2019-03-17T08:15:12.773Z,15.20
2019-03-17T08:17:41.462Z,15.40
2019-03-17T08:20:11.238Z,15.60
2019-03-17T08:22:39.864Z,15.80
2019-03-17T08:25:09.769Z,16.00
2019-03-17T08:27:38.372Z,16.40
2019-03-17T08:30:17.143Z,16.50
2019-03-17T08:32:45.875Z,17.00
2019-03-17T08:35:14.470Z,17.10
2019-03-17T08:37:43.066Z,17.50
2019-03-17T08:40:16.743Z,17.70
2019-03-17T08:42:45.369Z,17.90
2019-03-17T08:45:14.437Z,18.00
2019-03-17T08:47:43.087Z,18.20
2019-03-17T08:50:14.689Z,18.40
2019-03-17T08:52:43.334Z,18.90
2019-03-17T08:55:12.202Z,19.10
2019-03-17T08:57:40.822Z,19.50
2019-03-17T09:00:14.701Z,19.80
2019-03-17T09:02:43.240Z,19.80
2019-03-17T09:05:11.969Z,20.40
2019-03-17T09:07:40.599Z,20.70
2019-03-17T09:10:14.265Z,21.20
2019-03-17T09:12:43.032Z,21.20
2019-03-17T09:15:11.849Z,20.70
2019-03-17T09:17:40.505Z,20.40
2019-03-17T09:20:15.526Z,20.50
2019-03-17T09:22:44.150Z,20.40
2019-03-17T09:25:12.859Z,20.60
2019-03-17T09:27:41.466Z,20.70
2019-03-17T09:30:12.686Z,21.30
2019-03-17T09:32:41.320Z,21.50
2019-03-17T09:35:10.264Z,21.90
2019-03-17T09:37:38.955Z,21.90
2019-03-17T09:40:10.531Z,21.70
2019-03-17T09:42:39.235Z,21.50
2019-03-17T09:45:12.494Z,21.90
2019-03-17T09:47:41.612Z,21.80
2019-03-17T09:50:20.383Z,21.80
2019-03-17T09:52:49.114Z,21.90
2019-03-17T09:55:17.892Z,22.20
2019-03-17T09:57:46.476Z,22.60
2019-03-17T10:00:18.097Z,22.10
2019-03-17T10:02:46.830Z,22.50
2019-03-17T10:05:15.518Z,22.20
2019-03-17T10:07:44.062Z,22.30
2019-03-17T10:10:14.541Z,22.20
2019-03-17T10:12:43.873Z,22.40
2019-03-17T10:15:14.378Z,23.00
2019-03-17T10:17:43.032Z,23.20
2019-03-17T10:20:22.005Z,23.00
2019-03-17T10:22:50.730Z,23.00
2019-03-17T10:25:19.443Z,22.80
2019-03-17T10:27:47.974Z,22.70
2019-03-17T10:30:18.739Z,22.90
2019-03-17T10:32:47.350Z,23.20
2019-03-17T10:35:16.045Z,23.50
2019-03-17T10:37:44.663Z,23.90
2019-03-17T10:40:22.700Z,23.70
2019-03-17T10:42:51.322Z,24.00
2019-03-17T10:45:20.024Z,24.00
2019-03-17T10:47:48.646Z,24.70
2019-03-17T10:50:21.255Z,24.50
2019-03-17T10:52:49.857Z,24.00
2019-03-17T10:55:18.553Z,24.70
2019-03-17T10:57:47.228Z,24.00
2019-03-17T11:00:20.026Z,24.40
2019-03-17T11:02:48.739Z,24.70
2019-03-17T11:05:17.709Z,24.90
2019-03-17T11:07:46.328Z,25.10
2019-03-17T11:10:15.229Z,24.90
2019-03-17T11:12:43.922Z,24.70
2019-03-17T11:15:14.728Z,24.60
2019-03-17T11:17:43.499Z,24.20
2019-03-17T11:20:13.093Z,24.70
2019-03-17T11:22:41.906Z,23.90
2019-03-17T11:25:12.659Z,24.30
2019-03-17T11:27:41.295Z,24.60
2019-03-17T11:30:12.664Z,25.20
2019-03-17T11:32:41.246Z,23.90
2019-03-17T11:35:10.118Z,24.30
2019-03-17T11:37:38.870Z,25.00
2019-03-17T11:40:15.593Z,25.40
2019-03-17T11:42:44.289Z,25.70
2019-03-17T11:45:14.209Z,25.90
2019-03-17T11:47:43.264Z,25.70
2019-03-17T11:50:13.575Z,26.10
2019-03-17T11:52:42.271Z,25.00
2019-03-17T11:55:11.885Z,25.30
2019-03-17T11:57:40.908Z,24.90
2019-03-17T12:00:15.284Z,24.40
2019-03-17T12:02:43.988Z,24.80
2019-03-17T12:05:12.685Z,24.80
2019-03-17T12:07:41.243Z,24.70
2019-03-17T12:10:18.137Z,25.10
2019-03-17T12:12:46.742Z,24.60
2019-03-17T12:15:25.999Z,25.70
2019-03-17T12:17:54.677Z,25.40
2019-03-17T12:20:23.322Z,24.70
2019-03-17T12:22:52.055Z,25.30
2019-03-17T12:25:20.816Z,25.00
2019-03-17T12:27:49.574Z,25.10
2019-03-17T12:30:30.364Z,25.40
2019-03-17T12:32:59.486Z,25.00
2019-03-17T12:35:28.108Z,24.90
2019-03-17T12:37:56.802Z,24.80
2019-03-17T12:40:25.826Z,24.70
2019-03-17T12:42:54.335Z,24.60
2019-03-17T12:45:22.950Z,23.50
2019-03-17T12:47:51.531Z,22.60
2019-03-17T12:50:25.209Z,21.90
2019-03-17T12:52:53.931Z,22.20
2019-03-17T12:55:23.894Z,22.30
2019-03-17T12:57:57.339Z,22.60
2019-03-17T13:00:26.994Z,23.00
2019-03-17T13:02:55.679Z,23.60
2019-03-17T13:05:24.295Z,24.50
2019-03-17T13:07:52.842Z,24.90
2019-03-17T13:10:22.343Z,25.20
2019-03-17T13:12:51.462Z,25.10
2019-03-17T13:15:20.117Z,25.40
2019-03-17T13:17:48.598Z,25.60
2019-03-17T13:20:20.794Z,25.50
2019-03-17T13:22:49.472Z,25.10
2019-03-17T13:25:18.141Z,26.70
2019-03-17T13:27:46.809Z,26.80
2019-03-17T13:30:17.525Z,26.40
2019-03-17T13:32:46.454Z,25.30
2019-03-17T13:35:18.470Z,25.20
2019-03-17T13:37:47.152Z,24.80
2019-03-17T13:40:28.411Z,24.40
2019-03-17T13:42:47.471Z,23.80
2019-03-17T13:45:16.258Z,22.90
2019-03-17T13:47:44.892Z,22.30
2019-03-17T13:50:17.723Z,21.50
2019-03-17T13:52:46.493Z,20.70
2019-03-17T13:55:34.818Z,20.50
2019-03-17T13:58:09.017Z,20.20
2019-03-17T14:00:37.643Z,19.70
2019-03-17T14:03:06.316Z,19.70
2019-03-17T14:05:34.931Z,19.40
2019-03-17T14:08:03.549Z,19.20
2019-03-17T14:10:40.821Z,19.20
2019-03-17T14:13:13.053Z,19.20
2019-03-17T14:15:44.687Z,19.10
2019-03-17T14:18:13.298Z,19.00
2019-03-17T14:20:41.906Z,19.10
2019-03-17T14:23:10.467Z,19.00
2019-03-17T14:25:39.158Z,18.80
2019-03-17T14:28:07.813Z,18.80
2019-03-17T14:30:36.357Z,18.60
2019-03-17T14:33:04.943Z,18.60
2019-03-17T14:35:33.497Z,18.50
2019-03-17T14:38:02.173Z,18.30
2019-03-17T14:40:30.807Z,18.10
2019-03-17T14:42:59.436Z,18.10
2019-03-17T14:45:28.034Z,18.10
2019-03-17T14:47:56.721Z,18.00
2019-03-17T14:50:25.817Z,17.90
2019-03-17T14:52:54.375Z,17.80
2019-03-17T14:55:23.016Z,17.70
2019-03-17T14:57:51.506Z,17.60
2019-03-17T15:00:21.339Z,17.50
2019-03-17T15:02:50.075Z,17.50
2019-03-17T15:05:19.671Z,17.50
2019-03-17T15:07:49.905Z,17.50
2019-03-17T15:10:26.166Z,17.30
2019-03-17T15:12:54.746Z,17.30
2019-03-17T15:15:23.743Z,17.30
2019-03-17T15:17:52.585Z,17.20
2019-03-17T15:20:28.075Z,17.10
2019-03-17T15:22:56.597Z,17.10
2019-03-17T15:25:25.129Z,17.00
2019-03-17T15:27:53.843Z,17.00
2019-03-17T15:30:25.213Z,16.90
2019-03-17T15:32:53.893Z,16.90
2019-03-17T15:35:22.630Z,16.70
2019-03-17T15:37:51.450Z,16.70
2019-03-17T15:40:21.170Z,16.60
2019-03-17T15:42:49.758Z,16.60
2019-03-17T15:45:19.334Z,16.70
2019-03-17T15:47:47.974Z,16.80
2019-03-17T15:50:20.743Z,16.70
2019-03-17T15:52:49.388Z,16.60
2019-03-17T15:55:18.508Z,16.50
2019-03-17T15:57:47.157Z,16.60
2019-03-17T16:00:25.491Z,16.40
2019-03-17T16:02:50.749Z,16.30
2019-03-17T16:05:19.663Z,16.30
2019-03-17T16:07:48.482Z,16.20
2019-03-17T16:10:21.725Z,16.10
2019-03-17T16:12:50.496Z,16.20
2019-03-17T16:15:19.110Z,16.10
2019-03-17T16:17:47.834Z,16.00
2019-03-17T16:20:21.148Z,16.00
2019-03-17T16:22:50.141Z,15.80
2019-03-17T16:25:35.472Z,15.80
2019-03-17T16:28:04.372Z,15.80
2019-03-17T16:30:34.534Z,15.80
2019-03-17T16:33:03.525Z,15.70
2019-03-17T16:35:32.230Z,15.60
2019-03-17T16:38:00.920Z,15.70
2019-03-17T16:40:32.546Z,15.50
2019-03-17T16:43:01.231Z,15.40
2019-03-17T16:45:30.260Z,15.30
2019-03-17T16:47:58.950Z,15.20
2019-03-17T16:50:27.830Z,14.70
2019-03-17T16:52:56.440Z,14.40
2019-03-17T16:55:25.170Z,13.80
2019-03-17T16:57:54.036Z,13.70
2019-03-17T17:00:23.843Z,13.40
2019-03-17T17:02:52.447Z,13.00
2019-03-17T17:05:22.142Z,12.80
2019-03-17T17:07:50.777Z,12.40
2019-03-17T17:10:23.822Z,12.30
2019-03-17T17:12:52.369Z,11.70
2019-03-17T17:15:29.653Z,11.60
2019-03-17T17:17:58.374Z,11.10
2019-03-17T17:20:31.251Z,10.80
2019-03-17T17:22:59.978Z,10.30
2019-03-17T17:25:28.583Z,10.00
2019-03-17T17:27:57.285Z,10.00
2019-03-17T17:30:25.905Z,9.60
2019-03-17T17:32:54.429Z,9.70
2019-03-17T17:35:23.103Z,9.60
2019-03-17T17:37:51.738Z,9.20
2019-03-17T17:40:21.532Z,8.90
2019-03-17T17:42:50.215Z,8.70
2019-03-17T17:45:23.072Z,8.70
2019-03-17T17:47:51.702Z,8.40
2019-03-17T17:50:25.250Z,8.40
2019-03-17T17:52:53.970Z,8.20
2019-03-17T17:55:22.532Z,7.90
2019-03-17T17:57:52.868Z,7.90
2019-03-17T18:00:23.343Z,8.10
2019-03-17T18:02:51.940Z,7.80
2019-03-17T18:05:20.420Z,7.70
2019-03-17T18:07:49.066Z,7.70
2019-03-17T18:10:18.441Z,7.60
2019-03-17T18:12:47.124Z,7.40
2019-03-17T18:15:18.588Z,7.40
2019-03-17T18:17:47.116Z,7.30
2019-03-17T18:20:15.844Z,7.30
2019-03-17T18:22:44.444Z,7.50
2019-03-17T18:25:15.960Z,7.20
2019-03-17T18:27:44.636Z,7.10
2019-03-17T18:30:18.403Z,7.20
2019-03-17T18:32:47.048Z,6.90
2019-03-17T18:35:15.719Z,6.90
2019-03-17T18:37:44.421Z,6.90
2019-03-17T18:40:17.933Z,6.80
2019-03-17T18:42:46.482Z,6.80
2019-03-17T18:45:29.629Z,6.90
2019-03-17T18:47:58.493Z,6.70
2019-03-17T18:50:27.208Z,6.70
2019-03-17T18:52:55.906Z,6.60
2019-03-17T18:55:24.599Z,6.40
2019-03-17T18:57:53.341Z,6.50
2019-03-17T19:00:27.759Z,6.30
2019-03-17T19:02:56.385Z,6.20
2019-03-17T19:05:24.939Z,6.30
2019-03-17T19:07:53.558Z,6.50
2019-03-17T19:10:22.245Z,6.20
2019-03-17T19:12:50.954Z,6.30
2019-03-17T19:15:21.180Z,6.30
2019-03-17T19:17:49.933Z,6.30
2019-03-17T19:20:19.515Z,6.20
2019-03-17T19:22:48.146Z,6.20
2019-03-17T19:25:23.914Z,6.40
2019-03-17T19:27:52.654Z,6.40
2019-03-17T19:30:23.113Z,6.30
2019-03-17T19:32:51.774Z,6.30
2019-03-17T19:35:20.510Z,6.40
2019-03-17T19:37:49.491Z,6.50
2019-03-17T19:40:19.382Z,6.40
2019-03-17T19:42:58.006Z,6.30
2019-03-17T19:45:18.433Z,6.20
2019-03-17T19:47:47.110Z,6.20
2019-03-17T19:50:17.003Z,6.10
2019-03-17T19:52:45.702Z,6.20
2019-03-17T19:55:14.408Z,6.20
2019-03-17T19:57:43.073Z,6.30
2019-03-17T20:00:14.611Z,6.20
2019-03-17T20:02:46.812Z,6.30
2019-03-17T20:05:13.959Z,6.40
2019-03-17T20:07:42.592Z,6.30
2019-03-17T20:10:24.002Z,6.30
2019-03-17T20:12:52.713Z,6.20
2019-03-17T20:15:21.331Z,6.20
2019-03-17T20:17:49.886Z,6.20
2019-03-17T20:20:18.502Z,6.20
2019-03-17T20:22:47.070Z,6.20
2019-03-17T20:25:15.749Z,6.30
2019-03-17T20:27:44.491Z,6.20
2019-03-17T20:30:17.062Z,6.10
2019-03-17T20:32:45.706Z,6.20
2019-03-17T20:35:14.683Z,6.20
2019-03-17T20:37:43.384Z,6.20
2019-03-17T20:40:16.292Z,6.20
2019-03-17T20:42:45.008Z,6.20
2019-03-17T20:45:15.559Z,6.20
2019-03-17T20:47:44.371Z,6.20
2019-03-17T20:50:14.394Z,6.10
2019-03-17T20:52:43.023Z,6.10
2019-03-17T20:55:12.273Z,6.20
2019-03-17T20:57:40.941Z,6.20
2019-03-17T21:00:16.657Z,6.20
2019-03-17T21:02:45.479Z,6.10
2019-03-17T21:05:14.302Z,6.10
2019-03-17T21:07:43.405Z,6.20
2019-03-17T21:10:13.449Z,6.20
2019-03-17T21:12:42.202Z,6.10
2019-03-17T21:15:12.613Z,6.00
2019-03-17T21:17:41.299Z,6.20
2019-03-17T21:20:15.057Z,6.20
2019-03-17T21:22:43.789Z,6.10
2019-03-17T21:25:12.506Z,6.00
2019-03-17T21:27:41.369Z,6.00
2019-03-17T21:30:22.161Z,6.00
2019-03-17T21:32:51.071Z,5.90
2019-03-17T21:35:19.790Z,5.90
2019-03-17T21:37:48.443Z,5.70
2019-03-17T21:40:17.255Z,5.70
2019-03-17T21:42:45.992Z,5.60
2019-03-17T21:45:14.899Z,5.70
2019-03-17T21:47:43.570Z,5.60
2019-03-17T21:50:20.069Z,5.70
2019-03-17T21:52:48.760Z,5.70
2019-03-17T21:55:17.368Z,5.70
2019-03-17T21:57:45.979Z,5.80
2019-03-17T22:00:22.030Z,5.70
2019-03-17T22:02:54.965Z,5.70
2019-03-17T22:05:21.303Z,5.70
2019-03-17T22:07:51.260Z,5.60
2019-03-17T22:10:21.315Z,5.70
2019-03-17T22:12:50.024Z,5.70
2019-03-17T22:15:19.031Z,5.60
2019-03-17T22:17:47.668Z,5.60
2019-03-17T22:20:16.849Z,5.60
2019-03-17T22:22:45.442Z,5.60
2019-03-17T22:25:17.333Z,5.50
2019-03-17T22:27:45.865Z,5.40
2019-03-17T22:30:15.930Z,5.30
2019-03-17T22:32:44.543Z,5.40
2019-03-17T22:35:13.172Z,5.30
2019-03-17T22:37:41.841Z,5.30
2019-03-17T22:40:12.454Z,5.20
2019-03-17T22:42:41.210Z,5.10
2019-03-17T22:45:12.264Z,5.20
2019-03-17T22:47:40.895Z,5.10
2019-03-17T22:50:14.548Z,5.20
2019-03-17T22:52:43.229Z,5.10
2019-03-17T22:55:12.039Z,5.20
2019-03-17T22:57:40.654Z,5.10
2019-03-17T23:00:33.990Z,5.10
2019-03-17T23:03:02.512Z,5.20
2019-03-17T23:05:31.198Z,5.10
2019-03-17T23:07:59.829Z,5.10
2019-03-17T23:10:28.612Z,5.00
2019-03-17T23:12:57.231Z,5.10
2019-03-17T23:15:25.836Z,4.90
2019-03-17T23:17:54.413Z,4.90
2019-03-17T23:20:23.049Z,4.90
2019-03-17T23:22:51.621Z,4.80
2019-03-17T23:25:20.158Z,4.90
2019-03-17T23:27:48.810Z,5.00
2019-03-17T23:30:19.070Z,4.80
2019-03-17T23:32:49.276Z,4.90
2019-03-17T23:35:18.067Z,4.90
2019-03-17T23:37:46.682Z,4.90
2019-03-17T23:40:16.766Z,4.90
2019-03-17T23:42:45.393Z,4.80
2019-03-17T23:45:14.342Z,4.90
2019-03-17T23:47:43.053Z,4.80
2019-03-17T23:50:14.750Z,4.80
2019-03-17T23:52:43.383Z,4.70
2019-03-17T23:55:14.294Z,4.70
2019-03-17T23:57:43.001Z,4.80
